Time;durP1;ratioP1;P1;durP2;ratioP2;P2;SDS_P1;SDS_P2;PMS_P1;PMS_P2;Temp;Humidity;BMP_temperature;BMP_pressure;BME280_temperature;BME280_humidity;BME280_pressure;Samples;Min_cycle;Max_cycle;Signal;HPM_P1;HPM_P2
2023/10/11 00:01:42;;;;;;;1.70;0.93;;;14.90;99.90;;;;;;5030185;28;20037;-75
2023/10/11 00:04:23;;;;;;;1.40;1.27;;;14.90;99.90;;;;;;5030543;28;20030;-75
2023/10/11 00:06:56;;;;;;;1.25;0.93;;;14.80;99.90;;;;;;5029378;28;20482;-75
2023/10/11 00:09:38;;;;;;;0.70;0.35;;;14.80;99.90;;;;;;5029660;28;20053;-75
2023/10/11 00:12:05;;;;;;;1.60;0.90;;;14.80;99.90;;;;;;5028623;28;20398;-75
2023/10/11 00:14:31;;;;;;;0.38;0.38;;;14.90;99.90;;;;;;5031100;28;20056;-75
2023/10/11 00:16:57;;;;;;;3.38;1.27;;;15.00;99.90;;;;;;5029549;28;20390;-76
2023/10/11 00:19:28;;;;;;;0.70;0.70;;;15.10;99.90;;;;;;5029669;28;20053;-75
2023/10/11 00:21:55;;;;;;;2.08;0.90;;;15.10;99.90;;;;;;5032078;28;20029;-80
2023/10/11 00:24:23;;;;;;;0.77;0.77;;;15.20;99.90;;;;;;5028911;28;20029;-76
2023/10/11 00:26:50;;;;;;;12.27;2.60;;;15.20;99.90;;;;;;5030512;28;20033;-76
2023/10/11 00:29:16;;;;;;;2.42;1.15;;;15.20;98.90;;;;;;5044319;28;20048;-77
2023/10/11 00:31:45;;;;;;;1.08;0.63;;;15.20;96.30;;;;;;5027704;28;20029;-76
2023/10/11 00:34:12;;;;;;;7.13;1.42;;;15.20;94.20;;;;;;5031149;28;20045;-76
2023/10/11 00:36:40;;;;;;;2.08;1.08;;;15.20;94.50;;;;;;5028626;28;20467;-75
2023/10/11 00:39:07;;;;;;;3.00;1.73;;;15.20;93.00;;;;;;5026210;28;20035;-75
2023/10/11 00:41:39;;;;;;;0.82;0.82;;;15.20;84.20;;;;;;5029953;28;20455;-76
2023/10/11 00:44:05;;;;;;;1.50;1.10;;;15.20;81.80;;;;;;5029172;28;20041;-76
2023/10/11 00:46:50;;;;;;;0.80;0.70;;;15.20;87.10;;;;;;5031104;28;20383;-78
2023/10/11 00:49:17;;;;;;;4.57;1.17;;;15.20;83.10;;;;;;5042816;28;20640;-76
2023/10/11 00:51:48;;;;;;;2.15;0.47;;;15.10;85.50;;;;;;5030839;28;20050;-75
2023/10/11 00:54:15;;;;;;;5.53;1.02;;;15.10;87.50;;;;;;5028445;28;20474;-77
2023/10/11 00:56:44;;;;;;;1.05;0.75;;;15.00;93.70;;;;;;5031101;28;20044;-76
2023/10/11 00:59:14;;;;;;;2.20;1.42;;;15.00;94.50;;;;;;5027377;28;20131;-76
2023/10/11 01:01:44;;;;;;;1.83;0.77;;;15.00;96.90;;;;;;5029864;28;20033;-76
2023/10/11 01:04:12;;;;;;;;;;;14.90;99.30;;;;;;5029672;28;20034;-75
2023/10/11 01:06:38;;;;;;;1.02;0.70;;;14.90;99.30;;;;;;5030389;28;20362;-76
2023/10/11 01:09:18;;;;;;;2.70;1.45;;;14.80;99.90;;;;;;5028120;28;20033;-75
2023/10/11 01:11:47;;;;;;;1.98;0.60;;;14.90;99.20;;;;;;5028876;28;20439;-75
2023/10/11 01:14:14;;;;;;;0.30;0.30;;;14.90;96.40;;;;;;5029079;28;20030;-76
2023/10/11 01:16:41;;;;;;;0.70;0.70;;;14.90;96.70;;;;;;5027461;28;20041;-75
2023/10/11 01:19:11;;;;;;;1.35;1.25;;;14.90;99.30;;;;;;5034529;28;20421;-76
2023/10/11 01:21:38;;;;;;;0.40;0.40;;;14.90;98.60;;;;;;5030494;28;20044;-76
2023/10/11 01:24:08;;;;;;;0.85;0.68;;;14.80;98.40;;;;;;5028337;28;20046;-76
2023/10/11 01:26:35;;;;;;;0.85;0.50;;;14.80;99.60;;;;;;5030705;28;20486;-75
2023/10/11 01:29:01;;;;;;;4.03;1.88;;;14.70;99.90;;;;;;5026351;28;20038;-76
2023/10/11 01:31:33;;;;;;;0.50;0.50;;;14.70;99.90;;;;;;5029472;28;20030;-75
2023/10/11 01:34:00;;;;;;;9.55;0.82;;;14.70;99.90;;;;;;5027082;28;20048;-77
2023/10/11 01:36:26;;;;;;;3.58;0.88;;;14.70;99.90;;;;;;5029837;28;20459;-75
2023/10/11 01:38:52;;;;;;;1.77;0.45;;;14.60;99.90;;;;;;5027663;28;20033;-75
2023/10/11 01:41:28;;;;;;;5.72;1.20;;;14.60;99.90;;;;;;5022858;28;20036;-76
2023/10/11 01:43:56;;;;;;;3.35;0.90;;;14.60;99.90;;;;;;5029253;28;20045;-75
2023/10/11 01:46:27;;;;;;;2.25;1.45;;;14.60;99.90;;;;;;5030080;28;20458;-75
2023/10/11 01:48:55;;;;;;;0.63;0.60;;;14.60;99.90;;;;;;5024484;28;20042;-76
2023/10/11 01:51:28;;;;;;;5.38;1.55;;;14.60;99.90;;;;;;5027403;28;20033;-76
2023/10/11 01:54:01;;;;;;;0.10;0.10;;;14.50;99.90;;;;;;5026168;28;20041;-76
2023/10/11 01:56:30;;;;;;;6.60;1.35;;;14.50;99.90;;;;;;5044158;28;20045;-77
2023/10/11 01:59:00;;;;;;;1.15;1.05;;;14.50;99.90;;;;;;5026529;28;20406;-76
2023/10/11 02:01:30;;;;;;;1.00;0.93;;;14.40;99.90;;;;;;5027516;28;20524;-76
2023/10/11 02:03:59;;;;;;;1.58;0.93;;;14.30;99.90;;;;;;5028693;28;20148;-75
2023/10/11 02:06:31;;;;;;;4.30;1.95;;;14.30;99.90;;;;;;5026051;28;20042;-76
2023/10/11 02:08:59;;;;;;;0.75;0.73;;;14.30;99.90;;;;;;5029819;28;20375;-76
2023/10/11 02:11:25;;;;;;;4.88;1.13;;;14.30;99.90;;;;;;5025800;28;20033;-76
2023/10/11 02:13:57;;;;;;;2.30;1.13;;;14.30;99.90;;;;;;5029011;28;20046;-76
2023/10/11 02:16:24;;;;;;;0.93;0.77;;;14.20;99.90;;;;;;5028423;28;20041;-76
2023/10/11 02:18:58;;;;;;;1.25;0.88;;;14.20;99.90;;;;;;5032933;28;20084;-75
2023/10/11 02:21:29;;;;;;;2.70;0.75;;;14.20;99.90;;;;;;5024812;28;20505;-77
2023/10/11 02:24:04;;;;;;;;;;;14.10;99.90;;;;;;5031569;28;20045;-76
2023/10/11 02:26:31;;;;;;;2.38;1.00;;;14.10;99.90;;;;;;5033915;28;20385;-76
2023/10/11 02:29:00;;;;;;;0.20;0.20;;;14.20;99.90;;;;;;5032790;28;20398;-76
2023/10/11 02:31:31;;;;;;;4.38;0.52;;;14.10;99.90;;;;;;5035497;28;20053;-76
2023/10/11 02:34:12;;;;;;;2.35;2.15;;;14.10;99.90;;;;;;5028551;28;20502;-75
2023/10/11 02:36:42;;;;;;;;;;;14.10;99.90;;;;;;5049085;28;20045;-76
2023/10/11 02:39:21;;;;;;;7.25;2.25;;;14.00;99.90;;;;;;5030332;28;20354;-76
2023/10/11 02:41:50;;;;;;;1.13;0.82;;;14.00;99.90;;;;;;5031711;28;20025;-76
2023/10/11 02:44:16;;;;;;;0.32;0.32;;;14.00;99.90;;;;;;5031540;28;20037;-75
2023/10/11 02:46:43;;;;;;;0.20;0.20;;;13.90;99.90;;;;;;5031793;28;20041;-75
2023/10/11 02:49:18;;;;;;;2.05;1.65;;;13.90;99.90;;;;;;5032350;28;20052;-75
2023/10/11 02:51:52;;;;;;;2.42;1.15;;;13.90;99.90;;;;;;5028402;28;20036;-75
2023/10/11 02:54:38;;;;;;;1.55;1.05;;;13.80;99.90;;;;;;5031139;28;20029;-75
2023/10/11 02:57:20;;;;;;;1.30;0.65;;;13.80;99.90;;;;;;5030478;28;20044;-77
2023/10/11 02:59:50;;;;;;;1.70;1.10;;;13.70;99.90;;;;;;5031136;28;20137;-76
2023/10/11 03:02:17;;;;;;;2.75;0.65;;;13.70;99.90;;;;;;5028475;28;20053;-76
2023/10/11 03:04:45;;;;;;;0.63;0.63;;;13.70;99.90;;;;;;5031205;28;20376;-76
2023/10/11 03:07:14;;;;;;;8.60;2.10;;;13.70;99.90;;;;;;5029030;28;20088;-75
2023/10/11 03:09:41;;;;;;;1.23;0.60;;;13.70;99.90;;;;;;5029749;28;20037;-76
2023/10/11 03:12:30;;;;;;;5.68;1.63;;;13.70;99.90;;;;;;5029444;28;20425;-75
2023/10/11 03:14:56;;;;;;;0.50;0.47;;;13.70;99.90;;;;;;5030291;28;20104;-75
2023/10/11 03:17:23;;;;;;;2.35;0.80;;;13.60;99.90;;;;;;5031520;28;20063;-75
2023/10/11 03:19:49;;;;;;;1.15;0.60;;;13.60;99.90;;;;;;5032125;28;20037;-76
2023/10/11 03:22:19;;;;;;;4.00;0.80;;;13.60;99.90;;;;;;5029783;28;20029;-75
2023/10/11 03:24:53;;;;;;;1.13;0.90;;;13.60;99.90;;;;;;5033010;28;20034;-76
2023/10/11 03:27:23;;;;;;;1.35;0.85;;;13.60;99.90;;;;;;5029990;28;20037;-76
2023/10/11 03:29:53;;;;;;;1.25;1.15;;;13.50;99.90;;;;;;5030008;28;20065;-75
2023/10/11 03:32:19;;;;;;;1.10;1.00;;;13.60;99.90;;;;;;5030458;28;20041;-76
2023/10/11 03:34:46;;;;;;;5.80;1.95;;;13.60;99.90;;;;;;5030434;28;20034;-76
2023/10/11 03:37:18;;;;;;;4.47;2.28;;;13.50;99.90;;;;;;5029814;28;20048;-77
2023/10/11 03:39:54;;;;;;;5.40;2.05;;;13.50;99.90;;;;;;5031870;28;20040;-76
2023/10/11 03:42:21;;;;;;;3.55;1.30;;;13.50;99.90;;;;;;5030569;28;20033;-74
2023/10/11 03:44:47;;;;;;;1.00;0.82;;;13.40;99.90;;;;;;5030143;28;20036;-74
2023/10/11 03:47:15;;;;;;;0.60;0.60;;;13.40;99.90;;;;;;5028840;28;20054;-75
2023/10/11 03:52:30;;;;;;;1.88;1.13;;;13.40;99.90;;;;;;5027683;28;20044;-75
2023/10/11 03:55:09;;;;;;;0.85;0.80;;;13.40;99.90;;;;;;5031554;28;20203;-75
2023/10/11 03:57:43;;;;;;;0.30;0.30;;;13.50;99.90;;;;;;5028002;28;20034;-76
2023/10/11 04:00:46;;;;;;;2.17;1.45;;;13.50;99.90;;;;;;5029924;28;20038;-75
2023/10/11 04:03:05;;;;;;;2.03;1.35;;;13.50;99.90;;;;;;5029083;28;20037;-75
2023/10/11 04:05:35;;;;;;;0.80;0.80;;;13.50;99.90;;;;;;5031335;28;20045;-74
2023/10/11 04:08:05;;;;;;;3.28;0.82;;;13.40;99.90;;;;;;5031083;28;20056;-75
2023/10/11 04:10:54;;;;;;;0.82;0.75;;;13.40;99.90;;;;;;5028620;28;20029;-76
2023/10/11 04:13:25;;;;;;;1.27;1.20;;;13.40;99.90;;;;;;5029909;28;20064;-76
2023/10/11 04:15:55;;;;;;;2.90;0.57;;;13.40;99.90;;;;;;5030488;28;20033;-74
2023/10/11 04:23:36;;;;;;;3.60;1.20;;;13.50;99.90;;;;;;5031294;28;20044;-75
2023/10/11 04:26:22;;;;;;;1.52;1.42;;;13.50;99.90;;;;;;5029414;28;20042;-76
2023/10/11 04:28:51;;;;;;;1.52;1.13;;;13.50;99.90;;;;;;5029705;28;20089;-75
2023/10/11 04:31:30;;;;;;;0.93;0.85;;;13.50;99.90;;;;;;5027369;28;20064;-75
2023/10/11 04:33:57;;;;;;;3.67;1.20;;;13.40;99.90;;;;;;5029596;28;20036;-75
2023/10/11 04:36:23;;;;;;;0.57;0.30;;;13.40;99.90;;;;;;5029032;28;20379;-75
2023/10/11 04:38:50;;;;;;;1.50;0.70;;;13.40;99.90;;;;;;5027720;28;20497;-75
2023/10/11 04:41:18;;;;;;;1.20;1.08;;;13.40;99.90;;;;;;5029010;28;20037;-76
2023/10/11 04:44:04;;;;;;;9.85;1.75;;;13.30;99.90;;;;;;5030072;28;20033;-75
2023/10/11 04:46:31;;;;;;;4.03;1.25;;;13.40;99.90;;;;;;5045399;28;20037;-75
2023/10/11 04:49:17;;;;;;;1.23;0.63;;;13.30;99.90;;;;;;5030468;28;20049;-76
2023/10/11 04:51:45;;;;;;;1.23;1.13;;;13.40;99.90;;;;;;5026926;28;20045;-76
2023/10/11 04:54:17;;;;;;;0.88;0.43;;;13.40;99.90;;;;;;5027643;28;20030;-75
2023/10/11 05:07:19;;;;;;;1.45;0.95;;;13.30;99.90;;;;;;5034742;28;20050;-75
2023/10/11 05:09:56;;;;;;;1.30;1.00;;;13.30;99.90;;;;;;5029123;28;20390;-76
2023/10/11 05:12:23;;;;;;;1.13;0.93;;;13.30;99.90;;;;;;5028711;28;20034;-79
2023/10/11 05:19:55;;;;;;;3.35;1.83;;;13.20;99.90;;;;;;5028571;28;20033;-75
2023/10/11 05:32:48;;;;;;;8.05;2.08;;;13.00;99.90;;;;;;5023624;28;20060;-76
2023/10/11 05:51:42;;;;;;;1.83;0.55;;;12.90;99.90;;;;;;5028103;28;20045;-77
2023/10/11 05:54:08;;;;;;;2.13;1.30;;;12.80;99.90;;;;;;5030067;28;20033;-75
2023/10/11 05:56:38;;;;;;;1.48;0.95;;;12.80;99.90;;;;;;5026184;28;20045;-76
2023/10/11 05:59:09;;;;;;;0.40;0.38;;;12.80;99.90;;;;;;5027252;28;20046;-76
2023/10/11 06:01:35;;;;;;;4.32;2.28;;;12.80;99.90;;;;;;5026825;28;20037;-75
2023/10/11 06:04:03;;;;;;;0.82;0.82;;;12.80;99.90;;;;;;5029525;28;20374;-75
2023/10/11 06:06:42;;;;;;;1.13;0.93;;;12.80;99.90;;;;;;5023711;28;20506;-74
2023/10/11 06:09:17;;;;;;;0.50;0.50;;;12.80;99.90;;;;;;5026698;28;20037;-74
2023/10/11 06:11:48;;;;;;;0.82;0.82;;;12.80;99.90;;;;;;5021035;28;20040;-75
2023/10/11 06:14:18;;;;;;;1.30;0.63;;;12.90;99.90;;;;;;5026432;28;20034;-76
2023/10/11 06:16:57;;;;;;;0.67;0.57;;;12.90;99.90;;;;;;5024886;28;20033;-75
2023/10/11 06:19:27;;;;;;;3.85;0.85;;;13.00;99.90;;;;;;5025820;28;20402;-76
2023/10/11 06:21:57;;;;;;;1.60;1.50;;;13.10;99.90;;;;;;5021176;28;20038;-76
2023/10/11 06:24:30;;;;;;;0.25;0.25;;;13.20;99.90;;;;;;5026129;28;20040;-75
2023/10/11 06:27:11;;;;;;;2.67;0.85;;;13.30;99.90;;;;;;5027720;28;20041;-76
2023/10/11 06:29:45;;;;;;;13.10;3.65;;;13.30;99.90;;;;;;5027825;28;20037;-75
2023/10/11 06:32:12;;;;;;;2.35;1.38;;;13.40;99.90;;;;;;5026885;28;20044;-75
2023/10/11 06:34:38;;;;;;;1.15;1.13;;;13.50;99.90;;;;;;5027698;28;20045;-75
2023/10/11 06:37:08;;;;;;;1.95;1.55;;;13.50;99.90;;;;;;5026285;28;20112;-76
2023/10/11 06:40:07;;;;;;;1.63;0.85;;;13.60;99.90;;;;;;5025291;28;20041;-76
2023/10/11 06:42:31;;;;;;;4.85;1.10;;;13.70;99.90;;;;;;5025000;28;20030;-77
2023/10/11 06:44:59;;;;;;;4.97;2.22;;;13.80;99.90;;;;;;5025185;28;20049;-75
2023/10/11 06:47:27;;;;;;;1.38;0.95;;;13.80;99.90;;;;;;5025019;28;20041;-75
2023/10/11 06:49:55;;;;;;;0.50;0.47;;;13.90;99.90;;;;;;5028986;28;20042;-77
2023/10/11 06:52:30;;;;;;;1.05;1.02;;;14.00;99.90;;;;;;5025971;28;20093;-76
2023/10/11 06:55:14;;;;;;;2.50;1.20;;;14.10;99.90;;;;;;5025003;28;20042;-76
2023/10/11 06:57:41;;;;;;;2.95;0.88;;;14.10;99.90;;;;;;5025868;28;20037;-76
2023/10/11 07:00:25;;;;;;;0.88;0.88;;;14.20;99.90;;;;;;5027501;28;20054;-78
2023/10/11 07:03:26;;;;;;;0.60;0.60;;;14.30;99.90;;;;;;5027238;28;20041;-75
2023/10/11 07:06:10;;;;;;;0.50;0.40;;;14.40;99.90;;;;;;5028267;28;20045;-76
2023/10/11 07:08:36;;;;;;;0.75;0.65;;;14.50;99.90;;;;;;5030579;28;20519;-76
2023/10/11 07:11:10;;;;;;;1.48;1.33;;;14.60;99.90;;;;;;5031482;28;20049;-79
2023/10/11 07:13:57;;;;;;;0.57;0.30;;;14.70;93.20;;;;;;5028319;28;20029;-76
2023/10/11 07:16:27;;;;;;;2.88;1.35;;;14.80;90.00;;;;;;5027960;28;20053;-76
2023/10/11 07:18:54;;;;;;;0.75;0.57;;;14.90;73.70;;;;;;5030561;28;20034;-76
2023/10/11 07:27:12;;;;;;;1.08;1.02;;;15.40;10.80;;;;;;5031335;28;20060;-76
2023/10/11 07:29:44;;;;;;;3.13;1.70;;;15.50;3.50;;;;;;5028159;28;20517;-76
2023/10/11 07:32:10;;;;;;;12.25;1.95;;;15.60;1.00;;;;;;5030886;28;20157;-75
2023/10/11 07:34:38;;;;;;;3.25;0.80;;;15.70;1.00;;;;;;5032166;28;20045;-76
2023/10/11 07:37:05;;;;;;;4.28;1.80;;;15.90;1.00;;;;;;5029938;28;20042;-75
2023/10/11 07:39:35;;;;;;;1.70;1.27;;;15.90;1.00;;;;;;5031618;28;20475;-77
2023/10/11 07:42:18;;;;;;;2.43;1.83;;;16.10;1.00;;;;;;5030375;28;20044;-77
2023/10/11 07:44:50;;;;;;;1.52;1.02;;;16.20;1.00;;;;;;5037146;28;20272;-77
2023/10/11 07:47:16;;;;;;;11.70;1.60;;;16.50;1.00;;;;;;5033882;28;20040;-85
2023/10/11 07:49:43;;;;;;;1.30;0.80;;;16.60;1.00;;;;;;5030731;28;20479;-78
2023/10/11 07:52:10;;;;;;;1.10;0.95;;;16.90;1.00;;;;;;5028156;28;20040;-76
2023/10/11 07:54:39;;;;;;;1.35;0.82;;;17.10;1.00;;;;;;5028444;28;20470;-76
2023/10/11 07:57:12;;;;;;;0.75;0.75;;;17.20;99.90;;;;;;5029521;28;20061;-77
2023/10/11 07:59:39;;;;;;;1.30;1.20;;;17.40;99.90;;;;;;5028147;28;20438;-76
2023/10/11 08:02:26;;;;;;;1.23;1.00;;;17.40;99.90;;;;;;5029268;28;20033;-77
2023/10/11 08:04:57;;;;;;;1.70;0.80;;;17.60;99.90;;;;;;5029937;28;20033;-77
2023/10/11 08:07:23;;;;;;;0.40;0.40;;;17.80;99.90;;;;;;5029861;28;20037;-77
2023/10/11 08:09:55;;;;;;;1.25;0.65;;;18.00;99.90;;;;;;5029508;28;20109;-76
2023/10/11 08:12:23;;;;;;;1.73;0.73;;;18.00;99.90;;;;;;5027974;28;20463;-77
2023/10/11 08:14:53;;;;;;;7.55;1.77;;;18.00;99.90;;;;;;5029500;28;20025;-76
2023/10/11 08:17:20;;;;;;;4.60;1.92;;;18.00;99.90;;;;;;5029039;28;20056;-77
2023/10/11 08:19:53;;;;;;;0.30;0.30;;;18.20;99.90;;;;;;5031369;28;20135;-76
2023/10/11 08:22:20;;;;;;;1.10;1.02;;;18.30;99.90;;;;;;5026179;28;20033;-76
2023/10/11 08:24:48;;;;;;;3.53;1.15;;;18.20;99.90;;;;;;5031022;28;20041;-75
2023/10/11 08:27:27;;;;;;;0.55;0.45;;;18.30;99.90;;;;;;5031617;28;20382;-76
2023/10/11 08:30:16;;;;;;;2.25;1.35;;;18.40;99.90;;;;;;5029256;28;20042;-76
2023/10/11 08:32:43;;;;;;;1.70;0.70;;;18.40;99.90;;;;;;5029075;28;20371;-75
2023/10/11 08:35:16;;;;;;;0.30;0.30;;;18.40;99.90;;;;;;5028396;28;20036;-76
2023/10/11 08:37:52;;;;;;;1.33;0.90;;;18.50;99.90;;;;;;5029576;28;20040;-76
2023/10/11 08:40:23;;;;;;;0.38;0.38;;;18.60;99.90;;;;;;5026259;28;20037;-78
2023/10/11 08:42:50;;;;;;;1.45;0.75;;;18.70;99.90;;;;;;5029066;28;20092;-76
2023/10/11 08:45:28;;;;;;;5.40;0.32;;;19.00;99.90;;;;;;5028053;28;20032;-75
2023/10/11 08:47:54;;;;;;;1.48;1.10;;;19.10;99.90;;;;;;5030278;28;20458;-76
2023/10/11 08:50:21;;;;;;;0.73;0.45;;;19.20;99.90;;;;;;5029301;28;20112;-75
2023/10/11 08:52:48;;;;;;;2.20;1.15;;;19.20;99.90;;;;;;5028623;28;20045;-75
2023/10/11 08:55:19;;;;;;;2.63;1.23;;;19.40;99.90;;;;;;5029865;28;20140;-76
2023/10/11 08:57:47;;;;;;;1.27;0.80;;;19.70;99.90;;;;;;5026045;28;20339;-75
2023/10/11 09:00:29;;;;;;;1.63;1.02;;;19.90;99.90;;;;;;5028942;28;20041;-76
2023/10/11 09:02:55;;;;;;;2.25;2.05;;;20.10;99.90;;;;;;5026393;28;20041;-75
2023/10/11 09:05:32;;;;;;;2.05;1.10;;;20.50;99.90;;;;;;5028225;28;20036;-76
2023/10/11 09:08:04;;;;;;;1.15;1.05;;;20.50;99.90;;;;;;5030129;28;20041;-77
2023/10/11 09:10:33;;;;;;;2.92;1.77;;;21.00;68.80;;;;;;5029613;28;20089;-76
2023/10/11 09:13:02;;;;;;;1.35;0.85;;;21.30;65.50;;;;;;5029094;28;20044;-75
2023/10/11 09:15:44;;;;;;;1.08;0.95;;;21.50;24.50;;;;;;5027873;28;20053;-75
2023/10/11 09:18:18;;;;;;;2.67;1.38;;;22.00;1.00;;;;;;5024957;28;20034;-76
2023/10/11 09:23:39;;;;;;;1.25;1.10;;;22.10;1.00;;;;;;5029284;28;20056;-76
2023/10/11 09:26:08;;;;;;;2.30;1.58;;;22.10;1.00;;;;;;5028184;28;20025;-76
2023/10/11 09:28:40;;;;;;;1.35;0.38;;;22.20;1.00;;;;;;5027756;28;20045;-75
2023/10/11 09:31:16;;;;;;;0.40;0.40;;;22.20;1.00;;;;;;5024209;28;20340;-76
2023/10/11 09:33:53;;;;;;;0.55;0.55;;;22.20;1.00;;;;;;5025863;28;20080;-75
2023/10/11 09:36:21;;;;;;;2.38;1.25;;;22.30;1.00;;;;;;5024970;28;20427;-82
2023/10/11 09:38:54;;;;;;;2.20;1.52;;;22.00;1.00;;;;;;5026934;28;20029;-76
2023/10/11 09:41:40;;;;;;;2.15;1.10;;;21.90;1.00;;;;;;5029228;28;20064;-77
2023/10/11 09:44:10;;;;;;;0.30;0.30;;;21.80;1.00;;;;;;5026159;28;20060;-75
2023/10/11 09:46:37;;;;;;;1.25;1.15;;;21.70;1.00;;;;;;5028472;28;20379;-75
2023/10/11 09:49:04;;;;;;;2.28;1.55;;;21.90;1.00;;;;;;5027257;28;20033;-76
2023/10/11 09:51:31;;;;;;;0.77;0.60;;;22.00;1.00;;;;;;5027167;28;20451;-75
2023/10/11 09:54:07;;;;;;;0.47;0.47;;;22.10;1.00;;;;;;5029081;28;20562;-75
2023/10/11 09:56:39;;;;;;;0.95;0.85;;;22.20;1.00;;;;;;5022125;28;20041;-76
2023/10/11 09:59:27;;;;;;;0.80;0.80;;;22.20;1.00;;;;;;5023856;28;20042;-77
2023/10/11 10:02:09;;;;;;;2.30;1.25;;;22.20;1.00;;;;;;5021765;28;20045;-76
2023/10/11 10:04:50;;;;;;;0.73;0.40;;;22.00;1.00;;;;;;5029111;28;20037;-76
2023/10/11 10:07:26;;;;;;;1.17;0.65;;;22.10;1.00;;;;;;5021874;28;20034;-76
2023/10/11 10:09:59;;;;;;;0.20;0.20;;;22.30;1.00;;;;;;5022562;28;20038;-76
2023/10/11 10:12:40;;;;;;;0.30;0.30;;;22.40;1.00;;;;;;5019569;28;20360;-76
2023/10/11 10:15:14;;;;;;;2.40;0.80;;;22.60;1.00;;;;;;5028040;28;20036;-76
2023/10/11 10:17:56;;;;;;;0.75;0.75;;;22.90;1.00;;;;;;5030550;28;20048;-76
2023/10/11 10:20:49;;;;;;;0.30;0.30;;;22.90;1.00;;;;;;5028697;28;20045;-77
2023/10/11 10:23:15;;;;;;;0.20;0.20;;;23.00;1.00;;;;;;5029246;28;20034;-76
2023/10/11 10:25:46;;;;;;;1.27;1.00;;;23.10;1.00;;;;;;5030588;28;20391;-77
2023/10/11 10:28:31;;;;;;;1.75;0.75;;;23.10;1.00;;;;;;5029982;28;20037;-77
2023/10/11 10:31:17;;;;;;;2.40;1.65;;;23.40;1.00;;;;;;5030571;28;20453;-78
2023/10/11 10:33:50;;;;;;;0.50;0.50;;;23.50;1.00;;;;;;5027439;28;20416;-78
2023/10/11 10:36:28;;;;;;;0.40;0.40;;;23.70;1.00;;;;;;5028139;28;20041;-77
2023/10/11 10:39:00;;;;;;;1.27;0.68;;;23.80;1.00;;;;;;5028941;28;20332;-79
2023/10/11 10:41:30;;;;;;;0.45;0.45;;;23.90;1.00;;;;;;5029559;28;20029;-78
2023/10/11 10:44:04;;;;;;;0.17;0.17;;;23.80;1.00;;;;;;5028110;28;20030;-78
2023/10/11 10:46:33;;;;;;;4.63;1.27;;;23.80;1.00;;;;;;5032418;28;20079;-78
2023/10/11 10:49:01;;;;;;;0.38;0.38;;;23.90;1.00;;;;;;5030618;28;20470;-77
2023/10/11 10:51:37;;;;;;;6.15;1.30;;;23.90;1.00;;;;;;5029325;28;20034;-78
2023/10/11 10:54:12;;;;;;;8.43;1.85;;;24.00;1.00;;;;;;5029968;28;20029;-77
2023/10/11 10:56:43;;;;;;;0.95;0.80;;;24.30;1.00;;;;;;5030943;28;20112;-77
2023/10/11 10:59:11;;;;;;;0.50;0.50;;;24.20;99.90;;;;;;5030702;28;20053;-77
2023/10/11 11:01:44;;;;;;;0.80;0.80;;;24.20;99.90;;;;;;5029443;28;20451;-78
2023/10/11 11:04:13;;;;;;;2.33;1.67;;;24.20;99.90;;;;;;5040638;28;20061;-77
2023/10/11 11:06:47;;;;;;;1.65;0.65;;;24.10;1.00;;;;;;5030562;28;20267;-78
2023/10/11 11:09:36;;;;;;;1.75;0.73;;;24.20;1.00;;;;;;5030034;28;20117;-77
2023/10/11 11:12:14;;;;;;;0.60;0.60;;;24.40;1.00;;;;;;5036464;28;20040;-81
2023/10/11 11:14:56;;;;;;;1.17;0.60;;;24.60;99.90;;;;;;5031005;28;20071;-77
2023/10/11 11:17:24;;;;;;;0.82;0.82;;;24.60;99.90;;;;;;5032863;28;20379;-79
2023/10/11 11:20:28;;;;;;;1.13;0.28;;;24.60;99.90;;;;;;5032667;28;20042;-77
2023/10/11 11:22:55;;;;;;;2.13;1.58;;;24.60;99.90;;;;;;5023270;28;20044;-78
2023/10/11 11:28:07;;;;;;;0.30;0.30;;;24.80;99.90;;;;;;5032592;28;20056;-77
2023/10/11 11:30:34;;;;;;;2.95;1.63;;;24.80;99.90;;;;;;5030736;28;20735;-78
2023/10/11 11:33:13;;;;;;;1.52;0.90;;;24.80;99.90;;;;;;5029904;28;20500;-77
2023/10/11 11:35:44;;;;;;;1.40;0.55;;;24.80;99.90;;;;;;5024738;28;20082;-78
2023/10/11 11:38:20;;;;;;;4.45;1.05;;;25.00;99.90;;;;;;5027397;28;20034;-78
2023/10/11 11:40:51;;;;;;;0.85;0.80;;;25.10;99.90;;;;;;5028603;28;20038;-77
2023/10/11 11:43:20;;;;;;;0.60;0.57;;;25.10;99.90;;;;;;5027632;28;20021;-78
2023/10/11 11:45:47;;;;;;;1.67;1.13;;;25.20;99.90;;;;;;5031974;28;20025;-77
2023/10/11 11:48:23;;;;;;;0.70;0.70;;;25.30;99.90;;;;;;5029238;28;20037;-77
2023/10/11 11:50:49;;;;;;;0.47;0.47;;;25.30;99.90;;;;;;5026867;28;20038;-77
2023/10/11 11:53:18;;;;;;;0.85;0.82;;;25.50;99.90;;;;;;5030636;28;20037;-78
2023/10/11 11:55:46;;;;;;;0.30;0.30;;;25.60;99.90;;;;;;5030899;28;20418;-79
2023/10/11 11:58:16;;;;;;;1.17;0.68;;;25.40;99.90;;;;;;5032597;28;20041;-78
2023/10/11 12:00:46;;;;;;;2.03;1.23;;;25.50;99.90;;;;;;5027093;28;20049;-78
2023/10/11 12:03:12;;;;;;;1.75;1.13;;;25.50;99.90;;;;;;5028923;28;20045;-80
2023/10/11 12:05:41;;;;;;;1.88;1.77;;;25.60;99.90;;;;;;5031434;28;20034;-79
2023/10/11 12:08:21;;;;;;;1.23;0.55;;;25.60;99.90;;;;;;5030352;28;20061;-76
2023/10/11 12:10:49;;;;;;;1.63;0.88;;;25.70;99.90;;;;;;5026536;28;20045;-76
2023/10/11 12:13:26;;;;;;;0.32;0.32;;;25.80;99.90;;;;;;5028118;28;20041;-79
2023/10/11 12:15:54;;;;;;;1.08;0.95;;;25.90;99.90;;;;;;5028798;28;20036;-78
2023/10/11 12:18:23;;;;;;;1.45;0.85;;;25.90;99.90;;;;;;5029940;28;20037;-82
2023/10/11 12:20:49;;;;;;;2.38;1.25;;;26.10;99.90;;;;;;5028917;28;20430;-77
2023/10/11 12:23:15;;;;;;;0.95;0.65;;;26.20;99.90;;;;;;5030111;28;20048;-76
2023/10/11 12:25:47;;;;;;;3.88;2.10;;;26.30;99.90;;;;;;5031415;28;20029;-76
2023/10/11 12:28:14;;;;;;;2.38;0.60;;;26.20;99.90;;;;;;5030381;28;20033;-78
2023/10/11 12:30:44;;;;;;;5.38;1.67;;;26.10;99.90;;;;;;5032165;28;20465;-76
2023/10/11 12:33:10;;;;;;;0.77;0.77;;;26.10;99.90;;;;;;5030760;28;20037;-78
2023/10/11 12:35:40;;;;;;;1.85;1.48;;;26.20;99.90;;;;;;5030422;28;20037;-79
2023/10/11 12:38:12;;;;;;;0.50;0.50;;;26.30;99.90;;;;;;5029891;28;20056;-76
2023/10/11 12:40:44;;;;;;;2.08;1.15;;;26.30;99.90;;;;;;5028661;28;20037;-76
2023/10/11 12:43:10;;;;;;;0.85;0.85;;;26.40;99.90;;;;;;5030573;28;20093;-78
2023/10/11 12:45:42;;;;;;;0.32;0.32;;;26.50;99.90;;;;;;5029551;28;20386;-79
2023/10/11 12:48:10;;;;;;;2.75;1.33;;;26.50;99.90;;;;;;5028430;28;20525;-78
2023/10/11 12:50:37;;;;;;;1.27;0.68;;;26.50;99.90;;;;;;5029570;28;20034;-76
2023/10/11 12:53:12;;;;;;;1.65;1.13;;;26.70;99.90;;;;;;5025482;28;20041;-76
2023/10/11 12:55:50;;;;;;;3.63;0.57;;;26.70;99.90;;;;;;5030788;28;20033;-77
2023/10/11 12:58:19;;;;;;;2.25;1.05;;;26.60;99.90;;;;;;5027099;28;20040;-77
2023/10/11 13:00:51;;;;;;;0.40;0.40;;;26.50;99.90;;;;;;5025144;28;20048;-77
2023/10/11 13:03:25;;;;;;;4.25;0.75;;;26.70;99.90;;;;;;5030494;28;20047;-77
2023/10/11 13:05:53;;;;;;;1.38;1.27;;;26.70;99.90;;;;;;5026857;28;20045;-78
2023/10/11 13:08:26;;;;;;;0.40;0.40;;;26.80;99.90;;;;;;5029890;28;20033;-76
2023/10/11 13:10:53;;;;;;;1.10;0.88;;;26.80;99.90;;;;;;5027035;28;20478;-79
2023/10/11 13:13:21;;;;;;;4.45;1.40;;;26.70;99.90;;;;;;5029894;28;20021;-77
2023/10/11 13:15:59;;;;;;;1.27;0.60;;;26.70;99.90;;;;;;5028414;28;20037;-79
2023/10/11 13:18:27;;;;;;;1.00;0.90;;;26.70;99.90;;;;;;5027774;28;20064;-77
2023/10/11 13:20:55;;;;;;;3.30;1.20;;;26.80;99.90;;;;;;5025097;28;20038;-78
2023/10/11 13:23:28;;;;;;;0.30;0.30;;;26.80;99.90;;;;;;5028978;28;20045;-79
2023/10/11 13:26:08;;;;;;;1.17;0.80;;;26.80;99.90;;;;;;5028364;28;20030;-78
2023/10/11 13:28:36;;;;;;;0.50;0.50;;;26.80;99.90;;;;;;5028167;28;20052;-77
2023/10/11 13:31:03;;;;;;;0.40;0.35;;;26.80;99.90;;;;;;5027267;28;20041;-77
2023/10/11 13:33:30;;;;;;;0.45;0.45;;;27.00;99.90;;;;;;5027937;28;20042;-77
2023/10/11 13:36:01;;;;;;;0.40;0.30;;;27.00;99.90;;;;;;5027478;28;20131;-77
2023/10/11 13:38:30;;;;;;;0.28;0.20;;;27.10;99.90;;;;;;5028386;28;20045;-80
2023/10/11 13:41:00;;;;;;;1.77;1.55;;;27.00;99.90;;;;;;5027480;28;20042;-75
2023/10/11 13:43:26;;;;;;;0.47;0.35;;;26.90;99.90;;;;;;5028424;28;20025;-78
2023/10/11 13:46:06;;;;;;;1.27;1.00;;;26.70;99.90;;;;;;5033574;28;20068;-78
2023/10/11 13:48:41;;;;;;;2.05;0.88;;;26.60;99.90;;;;;;5027543;28;20029;-80
2023/10/11 13:51:16;;;;;;;0.43;0.38;;;26.60;99.90;;;;;;5026895;28;20041;-80
2023/10/11 13:53:42;;;;;;;0.73;0.60;;;26.70;99.90;;;;;;5026844;28;20347;-77
2023/10/11 13:56:20;;;;;;;0.50;0.50;;;26.60;99.90;;;;;;5029059;28;20032;-79
2023/10/11 13:58:47;;;;;;;1.83;0.75;;;26.70;99.90;;;;;;5026126;28;20038;-79
2023/10/11 14:01:36;;;;;;;0.30;0.20;;;26.90;99.90;;;;;;5025766;28;20046;-80
2023/10/11 14:04:12;;;;;;;0.30;0.30;;;27.00;99.90;;;;;;5028892;28;20041;-81
2023/10/11 14:06:59;;;;;;;0.28;0.28;;;27.00;92.70;;;;;;5026030;28;20048;-77
2023/10/11 14:09:30;;;;;;;1.73;1.10;;;26.80;81.30;;;;;;5027113;28;20041;-80
2023/10/11 14:11:57;;;;;;;0.80;0.75;;;26.80;93.30;;;;;;5027562;28;20061;-80
2023/10/11 14:14:24;;;;;;;3.45;1.02;;;26.70;80.90;;;;;;5034212;28;20033;-82